sensor_id;sensor_type;location;lat;lon;timestamp;pressure;altitude;pressure_sealevel;temperature;humidity
9009;BME280;62813;51.424;6.762;2023-12-07T00:02:03;101689.97;;;1.54;85.75
9009;BME280;62813;51.424;6.762;2023-12-07T00:04:31;101700.81;;;1.58;86.19
9009;BME280;62813;51.424;6.762;2023-12-07T00:06:58;101698.22;;;1.58;85.92
9009;BME280;62813;51.424;6.762;2023-12-07T00:09:25;101707.88;;;1.49;85.80
9009;BME280;62813;51.424;6.762;2023-12-07T00:11:53;101698.38;;;1.41;86.82
9009;BME280;62813;51.424;6.762;2023-12-07T00:14:20;101694.66;;;1.44;86.06
9009;BME280;62813;51.424;6.762;2023-12-07T00:16:47;101697.94;;;1.38;85.78
9009;BME280;62813;51.424;6.762;2023-12-07T00:19:16;101729.25;;;1.36;86.37
9009;BME280;62813;51.424;6.762;2023-12-07T00:21:43;101704.22;;;1.43;86.20
9009;BME280;62813;51.424;6.762;2023-12-07T00:24:10;101697.41;;;1.42;85.93
9009;BME280;62813;51.424;6.762;2023-12-07T00:26:36;101693.19;;;1.41;85.03
9009;BME280;62813;51.424;6.762;2023-12-07T00:29:05;101695.50;;;1.36;86.20
9009;BME280;62813;51.424;6.762;2023-12-07T00:31:32;101689.69;;;1.34;86.21
9009;BME280;62813;51.424;6.762;2023-12-07T00:33:59;101680.72;;;1.37;85.64
9009;BME280;62813;51.424;6.762;2023-12-07T00:36:25;101682.72;;;1.35;86.21
9009;BME280;62813;51.424;6.762;2023-12-07T00:38:53;101677.63;;;1.41;86.09
9009;BME280;62813;51.424;6.762;2023-12-07T00:41:19;101683.31;;;1.37;85.80
9009;BME280;62813;51.424;6.762;2023-12-07T00:43:46;101686.94;;;1.36;86.66
9009;BME280;62813;51.424;6.762;2023-12-07T00:46:14;101685.91;;;1.37;87.04
9009;BME280;62813;51.424;6.762;2023-12-07T00:48:41;101684.34;;;1.36;86.98
9009;BME280;62813;51.424;6.762;2023-12-07T00:51:08;101679.31;;;1.34;87.35
9009;BME280;62813;51.424;6.762;2023-12-07T00:53:35;101687.63;;;1.30;88.68
9009;BME280;62813;51.424;6.762;2023-12-07T00:56:03;101683.69;;;1.34;88.35
9009;BME280;62813;51.424;6.762;2023-12-07T00:58:31;101688.63;;;1.43;88.36
9009;BME280;62813;51.424;6.762;2023-12-07T01:00:57;101689.06;;;1.32;88.06
9009;BME280;62813;51.424;6.762;2023-12-07T01:03:25;101700.19;;;1.41;88.98
9009;BME280;62813;51.424;6.762;2023-12-07T01:05:51;101695.78;;;1.41;88.84
9009;BME280;62813;51.424;6.762;2023-12-07T01:10:46;101696.59;;;1.42;89.42
9009;BME280;62813;51.424;6.762;2023-12-07T01:13:13;101693.19;;;1.41;89.18
9009;BME280;62813;51.424;6.762;2023-12-07T01:15:40;101695.97;;;1.40;89.70
9009;BME280;62813;51.424;6.762;2023-12-07T01:18:07;101702.06;;;1.47;89.52
9009;BME280;62813;51.424;6.762;2023-12-07T01:20:34;101701.72;;;1.50;90.00
9009;BME280;62813;51.424;6.762;2023-12-07T01:23:01;101696.78;;;1.55;89.61
9009;BME280;62813;51.424;6.762;2023-12-07T01:25:28;101702.94;;;1.39;89.84
9009;BME280;62813;51.424;6.762;2023-12-07T01:27:55;101693.56;;;1.53;90.20
9009;BME280;62813;51.424;6.762;2023-12-07T01:30:22;101699.66;;;1.60;90.40
9009;BME280;62813;51.424;6.762;2023-12-07T01:32:49;101700.34;;;1.54;90.25
9009;BME280;62813;51.424;6.762;2023-12-07T01:35:16;101702.69;;;1.49;90.46
9009;BME280;62813;51.424;6.762;2023-12-07T01:37:43;101692.94;;;1.51;90.56
9009;BME280;62813;51.424;6.762;2023-12-07T01:40:10;101702.16;;;1.53;90.57
9009;BME280;62813;51.424;6.762;2023-12-07T01:42:38;101689.00;;;1.55;90.98
9009;BME280;62813;51.424;6.762;2023-12-07T01:45:06;101697.78;;;1.69;90.96
9009;BME280;62813;51.424;6.762;2023-12-07T01:47:35;101706.41;;;1.69;90.46
9009;BME280;62813;51.424;6.762;2023-12-07T01:50:03;101712.75;;;1.67;89.81
9009;BME280;62813;51.424;6.762;2023-12-07T01:52:38;101716.50;;;1.64;90.64
9009;BME280;62813;51.424;6.762;2023-12-07T01:55:06;101710.66;;;1.47;90.66
9009;BME280;62813;51.424;6.762;2023-12-07T01:57:36;101712.81;;;1.59;91.16
9009;BME280;62813;51.424;6.762;2023-12-07T02:00:04;101711.75;;;1.68;90.98
9009;BME280;62813;51.424;6.762;2023-12-07T02:02:31;101723.94;;;1.67;90.73
9009;BME280;62813;51.424;6.762;2023-12-07T02:04:58;101725.00;;;1.73;91.18
9009;BME280;62813;51.424;6.762;2023-12-07T02:07:26;101720.97;;;1.70;91.00
9009;BME280;62813;51.424;6.762;2023-12-07T02:09:54;101715.06;;;1.62;90.13
9009;BME280;62813;51.424;6.762;2023-12-07T02:12:21;101717.78;;;1.68;90.92
9009;BME280;62813;51.424;6.762;2023-12-07T02:14:50;101721.50;;;1.66;90.55
9009;BME280;62813;51.424;6.762;2023-12-07T02:22:39;101728.25;;;1.60;90.14
9009;BME280;62813;51.424;6.762;2023-12-07T02:25:10;101730.22;;;1.58;90.21
9009;BME280;62813;51.424;6.762;2023-12-07T02:27:42;101733.63;;;1.59;90.76
9009;BME280;62813;51.424;6.762;2023-12-07T02:30:10;101735.22;;;1.60;90.42
9009;BME280;62813;51.424;6.762;2023-12-07T02:32:39;101737.44;;;1.63;90.33
9009;BME280;62813;51.424;6.762;2023-12-07T02:35:08;101735.84;;;1.62;90.11
9009;BME280;62813;51.424;6.762;2023-12-07T02:37:41;101729.66;;;1.63;90.44
9009;BME280;62813;51.424;6.762;2023-12-07T02:40:09;101736.63;;;1.62;89.88
9009;BME280;62813;51.424;6.762;2023-12-07T02:42:38;101727.06;;;1.63;89.73
9009;BME280;62813;51.424;6.762;2023-12-07T02:45:08;101732.25;;;1.63;89.58
9009;BME280;62813;51.424;6.762;2023-12-07T02:47:36;101736.28;;;1.65;89.65
9009;BME280;62813;51.424;6.762;2023-12-07T02:50:05;101737.91;;;1.66;89.91
9009;BME280;62813;51.424;6.762;2023-12-07T02:52:33;101729.13;;;1.67;89.74
9009;BME280;62813;51.424;6.762;2023-12-07T02:55:00;101723.66;;;1.62;89.45
9009;BME280;62813;51.424;6.762;2023-12-07T02:57:27;101718.38;;;1.70;90.34
9009;BME280;62813;51.424;6.762;2023-12-07T02:59:54;101722.06;;;1.76;89.92
9009;BME280;62813;51.424;6.762;2023-12-07T03:02:20;101727.59;;;1.73;89.33
9009;BME280;62813;51.424;6.762;2023-12-07T03:04:48;101728.34;;;1.81;89.84
9009;BME280;62813;51.424;6.762;2023-12-07T03:07:15;101725.38;;;1.84;89.79
9009;BME280;62813;51.424;6.762;2023-12-07T03:09:41;101721.34;;;1.82;89.82
9009;BME280;62813;51.424;6.762;2023-12-07T03:12:08;101717.41;;;1.86;90.27
9009;BME280;62813;51.424;6.762;2023-12-07T03:14:35;101718.66;;;1.90;89.92
9009;BME280;62813;51.424;6.762;2023-12-07T03:17:02;101720.00;;;1.86;90.00
9009;BME280;62813;51.424;6.762;2023-12-07T03:19:30;101714.44;;;1.89;90.04
9009;BME280;62813;51.424;6.762;2023-12-07T03:21:56;101713.91;;;1.94;90.60
9009;BME280;62813;51.424;6.762;2023-12-07T03:24:24;101715.59;;;2.01;90.30
9009;BME280;62813;51.424;6.762;2023-12-07T03:26:51;101719.75;;;1.96;90.01
9009;BME280;62813;51.424;6.762;2023-12-07T03:29:18;101717.22;;;2.02;90.25
9009;BME280;62813;51.424;6.762;2023-12-07T03:31:47;101713.34;;;1.98;90.34
9009;BME280;62813;51.424;6.762;2023-12-07T03:34:14;101711.84;;;2.04;90.72
9009;BME280;62813;51.424;6.762;2023-12-07T03:36:45;101716.31;;;2.10;90.54
9009;BME280;62813;51.424;6.762;2023-12-07T03:39:14;101723.31;;;2.09;90.67
9009;BME280;62813;51.424;6.762;2023-12-07T03:41:41;101717.38;;;2.15;90.95
9009;BME280;62813;51.424;6.762;2023-12-07T03:44:08;101724.19;;;2.16;90.88
9009;BME280;62813;51.424;6.762;2023-12-07T03:46:35;101730.53;;;2.14;90.44
9009;BME280;62813;51.424;6.762;2023-12-07T03:49:02;101717.44;;;2.22;90.96
9009;BME280;62813;51.424;6.762;2023-12-07T03:51:30;101725.88;;;2.24;91.18
9009;BME280;62813;51.424;6.762;2023-12-07T03:53:57;101724.00;;;2.18;90.78
9009;BME280;62813;51.424;6.762;2023-12-07T03:56:25;101719.88;;;2.23;90.94
9009;BME280;62813;51.424;6.762;2023-12-07T03:58:52;101725.53;;;2.27;91.35
9009;BME280;62813;51.424;6.762;2023-12-07T04:01:23;101724.38;;;2.30;90.96
9009;BME280;62813;51.424;6.762;2023-12-07T04:03:51;101728.66;;;2.37;90.69
9009;BME280;62813;51.424;6.762;2023-12-07T04:06:18;101728.56;;;2.31;90.69
9009;BME280;62813;51.424;6.762;2023-12-07T04:08:46;101728.56;;;2.31;90.99
9009;BME280;62813;51.424;6.762;2023-12-07T04:11:13;101730.97;;;2.32;91.28
9009;BME280;62813;51.424;6.762;2023-12-07T04:13:41;101730.56;;;2.28;91.94
9009;BME280;62813;51.424;6.762;2023-12-07T04:16:09;101720.56;;;2.32;91.81
9009;BME280;62813;51.424;6.762;2023-12-07T04:18:36;101721.84;;;2.36;91.91
9009;BME280;62813;51.424;6.762;2023-12-07T04:21:03;101719.22;;;2.36;92.07
9009;BME280;62813;51.424;6.762;2023-12-07T04:23:32;101727.47;;;2.40;91.90
9009;BME280;62813;51.424;6.762;2023-12-07T04:26:00;101722.25;;;2.40;91.95
9009;BME280;62813;51.424;6.762;2023-12-07T04:28:27;101730.69;;;2.42;91.84
9009;BME280;62813;51.424;6.762;2023-12-07T04:30:54;101732.13;;;2.44;91.85
9009;BME280;62813;51.424;6.762;2023-12-07T04:33:21;101738.31;;;2.43;91.93
9009;BME280;62813;51.424;6.762;2023-12-07T04:35:48;101741.72;;;2.44;91.75
9009;BME280;62813;51.424;6.762;2023-12-07T04:38:15;101744.31;;;2.44;91.90
9009;BME280;62813;51.424;6.762;2023-12-07T04:40:42;101747.09;;;2.42;92.38
9009;BME280;62813;51.424;6.762;2023-12-07T04:43:09;101742.97;;;2.48;92.30
9009;BME280;62813;51.424;6.762;2023-12-07T04:45:36;101742.16;;;2.47;92.10
9009;BME280;62813;51.424;6.762;2023-12-07T04:48:03;101741.16;;;2.48;92.06
9009;BME280;62813;51.424;6.762;2023-12-07T04:50:33;101744.97;;;2.46;92.34
9009;BME280;62813;51.424;6.762;2023-12-07T04:53:00;101750.41;;;2.51;92.79
9009;BME280;62813;51.424;6.762;2023-12-07T04:55:27;101743.06;;;2.54;92.51
9009;BME280;62813;51.424;6.762;2023-12-07T04:57:54;101743.88;;;2.55;92.34
9009;BME280;62813;51.424;6.762;2023-12-07T05:00:21;101750.66;;;2.56;92.12
9009;BME280;62813;51.424;6.762;2023-12-07T05:02:48;101757.47;;;2.57;92.75
9009;BME280;62813;51.424;6.762;2023-12-07T05:05:16;101750.47;;;2.57;92.70
9009;BME280;62813;51.424;6.762;2023-12-07T05:07:44;101752.66;;;2.54;92.61
9009;BME280;62813;51.424;6.762;2023-12-07T05:10:10;101763.06;;;2.54;93.10
9009;BME280;62813;51.424;6.762;2023-12-07T05:12:37;101761.44;;;2.53;93.36
9009;BME280;62813;51.424;6.762;2023-12-07T05:15:05;101758.47;;;2.56;93.14
9009;BME280;62813;51.424;6.762;2023-12-07T05:17:33;101754.06;;;2.56;93.46
9009;BME280;62813;51.424;6.762;2023-12-07T05:20:00;101759.78;;;2.66;92.86
9009;BME280;62813;51.424;6.762;2023-12-07T05:22:26;101764.19;;;2.66;92.70
9009;BME280;62813;51.424;6.762;2023-12-07T05:24:54;101762.66;;;2.72;93.04
9009;BME280;62813;51.424;6.762;2023-12-07T05:27:21;101757.81;;;2.69;92.83
9009;BME280;62813;51.424;6.762;2023-12-07T05:29:48;101763.72;;;2.77;92.57
9009;BME280;62813;51.424;6.762;2023-12-07T05:32:15;101752.84;;;2.74;93.00
9009;BME280;62813;51.424;6.762;2023-12-07T05:34:42;101769.44;;;2.73;92.78
9009;BME280;62813;51.424;6.762;2023-12-07T05:37:12;101756.00;;;2.69;93.21
9009;BME280;62813;51.424;6.762;2023-12-07T05:39:39;101774.66;;;2.73;93.29
9009;BME280;62813;51.424;6.762;2023-12-07T05:42:05;101771.06;;;2.74;93.69
9009;BME280;62813;51.424;6.762;2023-12-07T05:44:32;101764.50;;;2.78;94.04
9009;BME280;62813;51.424;6.762;2023-12-07T05:47:00;101751.06;;;2.74;93.92
9009;BME280;62813;51.424;6.762;2023-12-07T05:49:27;101751.31;;;2.79;93.84
9009;BME280;62813;51.424;6.762;2023-12-07T05:51:54;101741.50;;;2.81;94.17
9009;BME280;62813;51.424;6.762;2023-12-07T05:54:21;101745.59;;;2.90;94.42
9009;BME280;62813;51.424;6.762;2023-12-07T05:56:49;101747.41;;;2.90;94.65
9009;BME280;62813;51.424;6.762;2023-12-07T05:59:16;101748.78;;;2.86;94.34
9009;BME280;62813;51.424;6.762;2023-12-07T06:01:43;101755.16;;;2.83;94.25
9009;BME280;62813;51.424;6.762;2023-12-07T06:04:10;101750.81;;;2.90;94.81
9009;BME280;62813;51.424;6.762;2023-12-07T06:06:39;101743.00;;;2.90;94.42
9009;BME280;62813;51.424;6.762;2023-12-07T06:09:07;101739.59;;;2.90;94.05
9009;BME280;62813;51.424;6.762;2023-12-07T06:11:35;101733.03;;;2.94;94.48
9009;BME280;62813;51.424;6.762;2023-12-07T06:14:04;101730.44;;;2.94;94.37
9009;BME280;62813;51.424;6.762;2023-12-07T06:16:33;101738.88;;;2.96;94.21
9009;BME280;62813;51.424;6.762;2023-12-07T06:19:00;101729.25;;;2.96;94.60
9009;BME280;62813;51.424;6.762;2023-12-07T06:21:27;101734.88;;;3.00;94.70
9009;BME280;62813;51.424;6.762;2023-12-07T06:23:56;101728.06;;;2.99;94.42
9009;BME280;62813;51.424;6.762;2023-12-07T06:26:25;101739.16;;;3.08;94.92
9009;BME280;62813;51.424;6.762;2023-12-07T06:28:52;101730.81;;;3.12;95.33
9009;BME280;62813;51.424;6.762;2023-12-07T06:31:19;101721.25;;;3.19;95.01
9009;BME280;62813;51.424;6.762;2023-12-07T06:33:51;101730.09;;;3.25;94.66
9009;BME280;62813;51.424;6.762;2023-12-07T06:36:23;101728.47;;;3.24;94.78
9009;BME280;62813;51.424;6.762;2023-12-07T06:38:50;101721.25;;;3.19;94.33
9009;BME280;62813;51.424;6.762;2023-12-07T06:41:17;101730.66;;;3.20;94.49
9009;BME280;62813;51.424;6.762;2023-12-07T06:43:44;101731.66;;;3.19;94.23
9009;BME280;62813;51.424;6.762;2023-12-07T06:46:12;101732.47;;;3.20;94.71
9009;BME280;62813;51.424;6.762;2023-12-07T06:48:42;101728.69;;;3.22;94.34
9009;BME280;62813;51.424;6.762;2023-12-07T06:51:09;101730.47;;;3.22;94.26
9009;BME280;62813;51.424;6.762;2023-12-07T06:53:36;101736.25;;;3.17;92.98
9009;BME280;62813;51.424;6.762;2023-12-07T06:56:03;101725.41;;;3.14;93.48
9009;BME280;62813;51.424;6.762;2023-12-07T06:58:30;101727.19;;;2.92;93.49
9009;BME280;62813;51.424;6.762;2023-12-07T07:00:57;101728.00;;;2.92;94.09
9009;BME280;62813;51.424;6.762;2023-12-07T07:03:26;101720.78;;;2.88;93.74
9009;BME280;62813;51.424;6.762;2023-12-07T07:05:55;101719.78;;;2.89;93.78
9009;BME280;62813;51.424;6.762;2023-12-07T07:08:21;101719.56;;;2.90;93.98
9009;BME280;62813;51.424;6.762;2023-12-07T07:10:48;101721.19;;;2.91;93.88
9009;BME280;62813;51.424;6.762;2023-12-07T07:13:15;101728.63;;;2.94;93.33
9009;BME280;62813;51.424;6.762;2023-12-07T07:15:44;101720.56;;;2.89;92.87
9009;BME280;62813;51.424;6.762;2023-12-07T07:18:11;101730.97;;;2.89;93.39
9009;BME280;62813;51.424;6.762;2023-12-07T07:20:39;101720.16;;;2.86;92.96
9009;BME280;62813;51.424;6.762;2023-12-07T07:23:06;101720.31;;;2.84;92.96
9009;BME280;62813;51.424;6.762;2023-12-07T07:25:34;101717.91;;;2.83;92.87
9009;BME280;62813;51.424;6.762;2023-12-07T07:28:01;101717.72;;;2.84;92.81
9009;BME280;62813;51.424;6.762;2023-12-07T07:30:29;101715.94;;;2.85;92.48
9009;BME280;62813;51.424;6.762;2023-12-07T07:32:55;101715.06;;;2.78;92.57
9009;BME280;62813;51.424;6.762;2023-12-07T07:35:22;101717.66;;;2.78;92.34
9009;BME280;62813;51.424;6.762;2023-12-07T07:37:49;101728.44;;;2.75;92.22
9009;BME280;62813;51.424;6.762;2023-12-07T07:40:16;101724.66;;;2.77;92.20
9009;BME280;62813;51.424;6.762;2023-12-07T07:42:43;101728.06;;;2.78;92.60
9009;BME280;62813;51.424;6.762;2023-12-07T07:45:10;101728.25;;;2.76;92.59
9009;BME280;62813;51.424;6.762;2023-12-07T07:47:36;101719.66;;;2.76;92.75
9009;BME280;62813;51.424;6.762;2023-12-07T07:50:04;101726.28;;;2.78;93.69
9009;BME280;62813;51.424;6.762;2023-12-07T07:52:33;101718.53;;;2.85;93.25
9009;BME280;62813;51.424;6.762;2023-12-07T07:55:00;101719.78;;;2.89;92.55
9009;BME280;62813;51.424;6.762;2023-12-07T07:57:30;101718.59;;;2.91;92.92
9009;BME280;62813;51.424;6.762;2023-12-07T07:59:57;101726.03;;;2.94;92.91
9009;BME280;62813;51.424;6.762;2023-12-07T08:02:24;101714.44;;;2.97;92.87
9009;BME280;62813;51.424;6.762;2023-12-07T08:04:51;101718.47;;;2.99;92.57
9009;BME280;62813;51.424;6.762;2023-12-07T08:07:21;101711.44;;;3.00;92.75
9009;BME280;62813;51.424;6.762;2023-12-07T08:09:47;101720.25;;;2.99;92.06
9009;BME280;62813;51.424;6.762;2023-12-07T08:12:14;101720.06;;;3.00;92.34
9009;BME280;62813;51.424;6.762;2023-12-07T08:14:41;101733.84;;;2.94;91.76
9009;BME280;62813;51.424;6.762;2023-12-07T08:17:11;101740.09;;;3.00;92.71
9009;BME280;62813;51.424;6.762;2023-12-07T08:19:38;101740.94;;;3.07;92.58
9009;BME280;62813;51.424;6.762;2023-12-07T08:22:05;101745.44;;;3.13;92.05
9009;BME280;62813;51.424;6.762;2023-12-07T08:24:31;101739.03;;;3.16;91.86
9009;BME280;62813;51.424;6.762;2023-12-07T08:26:58;101743.00;;;3.12;90.97
9009;BME280;62813;51.424;6.762;2023-12-07T08:29:25;101749.56;;;3.08;90.48
9009;BME280;62813;51.424;6.762;2023-12-07T08:31:52;101742.16;;;3.04;89.97
9009;BME280;62813;51.424;6.762;2023-12-07T08:34:19;101742.34;;;3.03;90.30
9009;BME280;62813;51.424;6.762;2023-12-07T08:36:49;101749.47;;;2.94;90.35
9009;BME280;62813;51.424;6.762;2023-12-07T08:39:16;101744.25;;;2.94;89.83
9009;BME280;62813;51.424;6.762;2023-12-07T08:41:43;101742.06;;;2.98;90.44
9009;BME280;62813;51.424;6.762;2023-12-07T08:44:09;101749.88;;;2.98;90.05
9009;BME280;62813;51.424;6.762;2023-12-07T08:46:36;101750.09;;;2.96;89.50
9009;BME280;62813;51.424;6.762;2023-12-07T08:49:03;101742.19;;;2.90;90.11
9009;BME280;62813;51.424;6.762;2023-12-07T08:51:30;101750.81;;;2.90;89.56
9009;BME280;62813;51.424;6.762;2023-12-07T08:53:57;101753.28;;;2.98;90.67
9009;BME280;62813;51.424;6.762;2023-12-07T08:56:24;101756.34;;;3.02;90.57
9009;BME280;62813;51.424;6.762;2023-12-07T08:58:52;101751.13;;;3.02;90.15
9009;BME280;62813;51.424;6.762;2023-12-07T09:01:18;101750.16;;;3.03;89.88
9009;BME280;62813;51.424;6.762;2023-12-07T09:03:57;101740.22;;;3.13;89.93
9009;BME280;62813;51.424;6.762;2023-12-07T09:06:25;101737.66;;;3.20;89.91
9009;BME280;62813;51.424;6.762;2023-12-07T09:08:52;101742.88;;;3.20;89.78
9009;BME280;62813;51.424;6.762;2023-12-07T09:11:19;101738.56;;;3.06;89.84
9009;BME280;62813;51.424;6.762;2023-12-07T09:13:45;101741.03;;;3.14;90.18
9009;BME280;62813;51.424;6.762;2023-12-07T09:16:12;101736.28;;;3.24;90.06
9009;BME280;62813;51.424;6.762;2023-12-07T09:18:40;101739.28;;;3.21;89.97
9009;BME280;62813;51.424;6.762;2023-12-07T09:21:07;101740.81;;;3.15;89.79
9009;BME280;62813;51.424;6.762;2023-12-07T09:23:34;101743.56;;;3.28;89.98
9009;BME280;62813;51.424;6.762;2023-12-07T09:26:01;101743.38;;;3.30;89.41
9009;BME280;62813;51.424;6.762;2023-12-07T09:28:29;101741.75;;;3.29;88.65
9009;BME280;62813;51.424;6.762;2023-12-07T09:30:56;101749.13;;;3.25;88.90
9009;BME280;62813;51.424;6.762;2023-12-07T09:33:23;101739.69;;;3.24;89.18
9009;BME280;62813;51.424;6.762;2023-12-07T09:35:50;101737.75;;;3.33;88.83
9009;BME280;62813;51.424;6.762;2023-12-07T09:38:17;101729.09;;;3.26;88.82
9009;BME280;62813;51.424;6.762;2023-12-07T09:40:45;101726.81;;;3.16;88.80
9009;BME280;62813;51.424;6.762;2023-12-07T09:43:13;101730.34;;;3.09;88.86
9009;BME280;62813;51.424;6.762;2023-12-07T09:45:40;101728.44;;;3.17;88.66
9009;BME280;62813;51.424;6.762;2023-12-07T09:48:07;101727.13;;;3.07;88.96
9009;BME280;62813;51.424;6.762;2023-12-07T09:50:34;101729.22;;;3.18;88.57
9009;BME280;62813;51.424;6.762;2023-12-07T09:53:02;101720.16;;;3.35;88.34
9009;BME280;62813;51.424;6.762;2023-12-07T09:55:34;101714.13;;;3.34;88.29
9009;BME280;62813;51.424;6.762;2023-12-07T09:58:04;101709.22;;;3.18;88.46
9009;BME280;62813;51.424;6.762;2023-12-07T10:00:33;101718.84;;;3.24;88.24
9009;BME280;62813;51.424;6.762;2023-12-07T10:03:00;101712.28;;;3.28;87.61
9009;BME280;62813;51.424;6.762;2023-12-07T10:05:28;101703.91;;;3.33;87.62
9009;BME280;62813;51.424;6.762;2023-12-07T10:07:55;101704.44;;;3.22;87.40
9009;BME280;62813;51.424;6.762;2023-12-07T10:10:21;101701.38;;;3.18;87.14
9009;BME280;62813;51.424;6.762;2023-12-07T10:12:56;101694.53;;;3.11;87.55
9009;BME280;62813;51.424;6.762;2023-12-07T10:15:25;101700.09;;;3.08;87.21
9009;BME280;62813;51.424;6.762;2023-12-07T10:17:57;101700.53;;;3.11;87.01
9009;BME280;62813;51.424;6.762;2023-12-07T10:20:27;101697.78;;;3.19;86.96
9009;BME280;62813;51.424;6.762;2023-12-07T10:23:04;101688.38;;;3.18;87.05
9009;BME280;62813;51.424;6.762;2023-12-07T10:25:35;101692.63;;;3.26;86.31
9009;BME280;62813;51.424;6.762;2023-12-07T10:28:03;101691.69;;;3.33;86.45
9009;BME280;62813;51.424;6.762;2023-12-07T10:30:41;101676.63;;;3.29;86.64
9009;BME280;62813;51.424;6.762;2023-12-07T10:33:10;101667.50;;;3.39;86.81
9009;BME280;62813;51.424;6.762;2023-12-07T10:35:41;101667.09;;;3.42;86.48
9009;BME280;62813;51.424;6.762;2023-12-07T10:38:10;101671.56;;;3.49;86.22
9009;BME280;62813;51.424;6.762;2023-12-07T10:40:37;101662.47;;;3.38;85.91
9009;BME280;62813;51.424;6.762;2023-12-07T10:43:06;101658.63;;;3.34;86.24
9009;BME280;62813;51.424;6.762;2023-12-07T10:45:35;101647.66;;;3.38;85.74
9009;BME280;62813;51.424;6.762;2023-12-07T10:48:08;101633.34;;;3.28;85.42
9009;BME280;62813;51.424;6.762;2023-12-07T10:50:42;101633.72;;;3.25;85.06
9009;BME280;62813;51.424;6.762;2023-12-07T10:53:27;101635.28;;;3.19;84.61
9009;BME280;62813;51.424;6.762;2023-12-07T10:56:00;101631.44;;;3.15;84.68
9009;BME280;62813;51.424;6.762;2023-12-07T10:58:27;101637.84;;;3.13;84.64
9009;BME280;62813;51.424;6.762;2023-12-07T11:00:55;101633.06;;;3.16;84.61
9009;BME280;62813;51.424;6.762;2023-12-07T11:03:25;101627.47;;;3.19;84.64
9009;BME280;62813;51.424;6.762;2023-12-07T11:05:52;101625.91;;;3.25;84.88
9009;BME280;62813;51.424;6.762;2023-12-07T11:08:40;101612.06;;;3.24;85.08
9009;BME280;62813;51.424;6.762;2023-12-07T11:14:11;101601.94;;;3.36;83.99
9009;BME280;62813;51.424;6.762;2023-12-07T11:16:41;101597.72;;;3.35;84.37
9009;BME280;62813;51.424;6.762;2023-12-07T11:22:05;101590.88;;;3.27;82.98
9009;BME280;62813;51.424;6.762;2023-12-07T11:24:32;101591.84;;;3.26;83.53
9009;BME280;62813;51.424;6.762;2023-12-07T11:26:59;101584.88;;;3.33;83.44
9009;BME280;62813;51.424;6.762;2023-12-07T11:29:28;101577.34;;;3.45;83.20
9009;BME280;62813;51.424;6.762;2023-12-07T11:32:02;101577.19;;;3.60;82.28
9009;BME280;62813;51.424;6.762;2023-12-07T11:34:45;101576.53;;;3.45;82.07
9009;BME280;62813;51.424;6.762;2023-12-07T11:37:15;101577.34;;;3.45;81.78
9009;BME280;62813;51.424;6.762;2023-12-07T11:39:44;101564.22;;;3.32;82.09
9009;BME280;62813;51.424;6.762;2023-12-07T11:42:15;101556.19;;;3.27;81.45
9009;BME280;62813;51.424;6.762;2023-12-07T11:44:43;101555.47;;;3.39;81.49
9009;BME280;62813;51.424;6.762;2023-12-07T11:47:18;101559.06;;;3.38;81.78
9009;BME280;62813;51.424;6.762;2023-12-07T11:49:45;101551.66;;;3.42;82.36
9009;BME280;62813;51.424;6.762;2023-12-07T11:52:17;101544.25;;;3.39;82.43
9009;BME280;62813;51.424;6.762;2023-12-07T11:54:45;101539.41;;;3.36;82.27
9009;BME280;62813;51.424;6.762;2023-12-07T11:57:16;101540.25;;;3.43;81.91
9009;BME280;62813;51.424;6.762;2023-12-07T11:59:44;101534.25;;;3.49;82.19
9009;BME280;62813;51.424;6.762;2023-12-07T12:02:12;101536.03;;;3.42;82.09
9009;BME280;62813;51.424;6.762;2023-12-07T12:04:42;101529.47;;;3.53;81.89
9009;BME280;62813;51.424;6.762;2023-12-07T12:07:09;101535.69;;;3.58;81.79
9009;BME280;62813;51.424;6.762;2023-12-07T12:09:36;101532.84;;;3.40;81.38
9009;BME280;62813;51.424;6.762;2023-12-07T12:12:04;101536.19;;;3.34;81.32
9009;BME280;62813;51.424;6.762;2023-12-07T12:14:31;101532.97;;;3.32;81.03
9009;BME280;62813;51.424;6.762;2023-12-07T12:16:58;101536.97;;;3.28;81.29
9009;BME280;62813;51.424;6.762;2023-12-07T12:19:25;101526.38;;;3.29;81.50
9009;BME280;62813;51.424;6.762;2023-12-07T12:22:02;101529.38;;;3.33;81.91
9009;BME280;62813;51.424;6.762;2023-12-07T12:24:34;101533.59;;;3.40;81.30
9009;BME280;62813;51.424;6.762;2023-12-07T12:27:03;101522.59;;;3.38;80.72
9009;BME280;62813;51.424;6.762;2023-12-07T12:29:31;101515.38;;;3.40;80.88
9009;BME280;62813;51.424;6.762;2023-12-07T12:32:02;101512.75;;;3.34;80.85
9009;BME280;62813;51.424;6.762;2023-12-07T12:34:30;101520.16;;;3.30;81.36
9009;BME280;62813;51.424;6.762;2023-12-07T12:36:59;101507.13;;;3.30;80.96
9009;BME280;62813;51.424;6.762;2023-12-07T12:39:29;101504.56;;;3.37;80.72
9009;BME280;62813;51.424;6.762;2023-12-07T12:42:00;101490.56;;;3.45;80.26
9009;BME280;62813;51.424;6.762;2023-12-07T12:44:27;101489.53;;;3.39;80.33
9009;BME280;62813;51.424;6.762;2023-12-07T12:47:05;101486.50;;;3.35;80.46
9009;BME280;62813;51.424;6.762;2023-12-07T12:49:38;101484.53;;;3.37;80.59
9009;BME280;62813;51.424;6.762;2023-12-07T12:52:14;101482.53;;;3.39;80.74
9009;BME280;62813;51.424;6.762;2023-12-07T12:54:43;101479.75;;;3.48;81.22
9009;BME280;62813;51.424;6.762;2023-12-07T12:57:10;101476.16;;;3.49;80.57
9009;BME280;62813;51.424;6.762;2023-12-07T12:59:37;101462.13;;;3.63;80.81
9009;BME280;62813;51.424;6.762;2023-12-07T13:02:05;101461.34;;;3.69;80.80
9009;BME280;62813;51.424;6.762;2023-12-07T13:04:32;101466.34;;;3.64;80.88
9009;BME280;62813;51.424;6.762;2023-12-07T13:07:04;101458.31;;;3.59;80.79
9009;BME280;62813;51.424;6.762;2023-12-07T13:09:31;101465.31;;;3.52;81.10
9009;BME280;62813;51.424;6.762;2023-12-07T13:11:58;101466.94;;;3.53;80.63
9009;BME280;62813;51.424;6.762;2023-12-07T13:14:30;101466.91;;;3.46;80.31
9009;BME280;62813;51.424;6.762;2023-12-07T13:16:58;101466.13;;;3.52;79.65
9009;BME280;62813;51.424;6.762;2023-12-07T13:19:24;101466.91;;;3.46;80.01
9009;BME280;62813;51.424;6.762;2023-12-07T13:21:51;101449.88;;;3.43;80.27
9009;BME280;62813;51.424;6.762;2023-12-07T13:24:19;101447.25;;;3.50;80.19
9009;BME280;62813;51.424;6.762;2023-12-07T13:26:45;101450.88;;;3.49;79.75
9009;BME280;62813;51.424;6.762;2023-12-07T13:29:14;101449.28;;;3.48;79.65